Time;durP1;ratioP1;P1;durP2;ratioP2;P2;SDS_P1;SDS_P2;PMS_P1;PMS_P2;Temp;Humidity;BMP_temperature;BMP_pressure;BME280_temperature;BME280_humidity;BME280_pressure;Samples;Min_cycle;Max_cycle;Signal;HPM_P1;HPM_P2
2023/11/16 00:00:56;;;;;;;21.42;2.78;;;8.70;99.90;;;;;;4989257;28;20023;-54
2023/11/16 00:03:23;;;;;;;6.97;1.63;;;8.70;99.90;;;;;;4988089;28;20035;-49
2023/11/16 00:05:49;;;;;;;4.45;1.75;;;8.70;99.90;;;;;;4989615;28;20022;-50
2023/11/16 00:08:16;;;;;;;6.22;1.80;;;8.70;99.90;;;;;;4989584;28;20142;-47
2023/11/16 00:10:42;;;;;;;4.22;1.80;;;8.70;99.90;;;;;;4989414;28;20119;-48
2023/11/16 00:13:09;;;;;;;7.05;1.60;;;8.70;99.90;;;;;;4988807;28;20069;-54
2023/11/16 00:15:35;;;;;;;6.43;1.92;;;8.60;99.90;;;;;;4987635;28;20037;-48
2023/11/16 00:18:04;;;;;;;6.35;2.03;;;8.60;99.90;;;;;;4989324;28;20026;-51
2023/11/16 00:20:32;;;;;;;5.43;1.48;;;8.60;99.90;;;;;;4987440;28;20011;-52
2023/11/16 00:22:58;;;;;;;9.27;1.80;;;8.70;99.90;;;;;;4989138;28;20041;-52
2023/11/16 00:25:23;;;;;;;6.43;2.13;;;8.70;99.90;;;;;;4989046;28;20121;-52
2023/11/16 00:27:50;;;;;;;3.20;1.25;;;8.60;99.90;;;;;;4989154;28;20398;-51
2023/11/16 00:30:16;;;;;;;6.95;1.88;;;8.90;99.90;;;;;;4988971;28;20054;-53
2023/11/16 00:32:41;;;;;;;9.23;2.60;;;8.50;99.90;;;;;;4989163;28;20504;-53
2023/11/16 00:35:07;;;;;;;5.60;1.60;;;8.60;99.90;;;;;;4989019;28;20057;-51
2023/11/16 00:37:34;;;;;;;7.25;2.20;;;8.50;99.90;;;;;;4989083;28;20030;-48
2023/11/16 00:40:00;;;;;;;11.50;2.10;;;8.50;99.90;;;;;;4987526;28;20030;-49
2023/11/16 00:42:28;;;;;;;7.30;1.88;;;8.60;99.90;;;;;;4987518;28;20029;-50
2023/11/16 00:44:53;;;;;;;27.50;13.05;;;8.50;99.90;;;;;;4988881;28;20375;-51
2023/11/16 00:47:19;;;;;;;8.07;2.00;;;8.50;99.90;;;;;;4988828;28;20101;-52
2023/11/16 00:49:46;;;;;;;6.97;1.50;;;8.50;99.90;;;;;;4988810;28;20393;-55
2023/11/16 00:52:11;;;;;;;7.38;1.85;;;8.50;99.90;;;;;;4988716;28;20030;-53
2023/11/16 00:54:37;;;;;;;11.90;2.05;;;8.50;99.90;;;;;;4988782;28;20041;-53
2023/11/16 00:57:03;;;;;;;5.93;2.20;;;8.50;99.90;;;;;;4988833;28;20070;-50
2023/11/16 00:59:30;;;;;;;6.68;1.85;;;8.50;99.90;;;;;;4987441;28;20026;-50
2023/11/16 01:01:58;;;;;;;6.93;2.03;;;8.40;99.90;;;;;;4988926;28;20030;-51
2023/11/16 01:04:27;;;;;;;3.97;1.77;;;8.40;99.90;;;;;;4989023;28;20106;-51
2023/11/16 01:06:53;;;;;;;11.05;1.83;;;8.50;99.90;;;;;;4992358;28;20038;-47
2023/11/16 01:09:20;;;;;;;6.70;1.67;;;8.50;99.90;;;;;;4992234;28;20022;-52
2023/11/16 01:11:45;;;;;;;5.32;1.60;;;8.50;99.90;;;;;;4992165;28;20474;-52
2023/11/16 01:14:16;;;;;;;3.85;1.38;;;8.50;99.90;;;;;;4992139;28;20035;-48
2023/11/16 01:16:42;;;;;;;5.35;1.67;;;8.50;99.90;;;;;;4991976;28;20023;-52
2023/11/16 01:19:16;;;;;;;5.90;1.95;;;8.40;99.90;;;;;;4991902;28;20190;-49
2023/11/16 01:21:44;;;;;;;6.63;2.05;;;8.40;99.90;;;;;;4991808;28;20070;-56
2023/11/16 01:24:11;;;;;;;8.60;3.03;;;8.30;99.90;;;;;;4990555;28;20117;-50
2023/11/16 01:26:39;;;;;;;5.45;1.75;;;8.20;99.90;;;;;;4991923;28;20397;-48
2023/11/16 01:29:10;;;;;;;7.60;2.30;;;8.20;99.90;;;;;;4992218;28;20411;-52
2023/11/16 01:31:39;;;;;;;8.13;1.90;;;8.10;99.90;;;;;;4991866;28;20121;-53
2023/11/16 01:34:09;;;;;;;11.35;2.03;;;8.10;99.90;;;;;;4991934;28;20028;-52
2023/11/16 01:36:35;;;;;;;6.22;2.15;;;8.10;99.90;;;;;;4991777;28;20030;-52
2023/11/16 01:39:01;;;;;;;9.27;2.40;;;8.10;99.90;;;;;;4990602;28;20556;-50
2023/11/16 01:41:26;;;;;;;4.97;1.90;;;8.10;99.90;;;;;;4991782;28;20121;-54
2023/11/16 01:43:52;;;;;;;6.70;2.67;;;8.10;99.90;;;;;;4991691;28;20107;-51
2023/11/16 01:46:18;;;;;;;7.22;1.98;;;8.00;99.90;;;;;;4991742;28;20027;-47
2023/11/16 01:48:44;;;;;;;10.63;1.92;;;7.90;99.90;;;;;;4990642;28;20030;-52
2023/11/16 01:51:13;;;;;;;6.57;1.70;;;8.00;99.90;;;;;;4991343;28;20018;-51
2023/11/16 01:53:48;;;;;;;6.15;2.17;;;7.90;99.90;;;;;;4990171;28;20446;-47
2023/11/16 01:56:15;;;;;;;9.32;2.47;;;8.00;99.90;;;;;;4991463;28;20073;-51
2023/11/16 01:58:44;;;;;;;6.68;1.70;;;8.00;99.90;;;;;;4991376;28;20030;-49
2023/11/16 02:01:10;;;;;;;13.68;3.58;;;8.00;99.90;;;;;;4990947;28;20354;-45
2023/11/16 02:03:35;;;;;;;4.93;2.15;;;8.00;99.90;;;;;;4991232;28;20031;-54
2023/11/16 02:06:03;;;;;;;5.55;1.75;;;8.00;99.90;;;;;;4991205;28;20030;-52
2023/11/16 02:08:29;;;;;;;15.43;2.95;;;8.00;99.90;;;;;;4989874;28;20065;-52
2023/11/16 02:10:55;;;;;;;9.15;3.58;;;8.00;99.90;;;;;;4991205;28;20080;-51
2023/11/16 02:13:23;;;;;;;5.55;2.70;;;8.00;99.90;;;;;;4991392;28;20023;-49
2023/11/16 02:15:52;;;;;;;6.85;2.50;;;8.00;99.90;;;;;;4991100;28;20019;-53
2023/11/16 02:18:18;;;;;;;12.27;2.50;;;8.00;99.90;;;;;;4990666;28;20033;-51
2023/11/16 02:20:47;;;;;;;10.05;2.70;;;8.10;99.90;;;;;;4991102;28;20027;-51
2023/11/16 02:23:14;;;;;;;7.97;2.78;;;8.00;99.90;;;;;;4991139;28;20026;-52
2023/11/16 02:25:49;;;;;;;9.00;3.00;;;8.10;99.90;;;;;;4991093;28;20507;-51
2023/11/16 02:28:15;;;;;;;4.97;2.30;;;8.10;99.90;;;;;;4991116;28;20027;-49
2023/11/16 02:30:41;;;;;;;10.55;4.35;;;8.10;99.90;;;;;;4990918;28;20031;-49
2023/11/16 02:33:06;;;;;;;8.40;3.22;;;8.10;99.90;;;;;;4990922;28;20079;-51
2023/11/16 02:35:33;;;;;;;8.60;2.70;;;8.10;99.90;;;;;;4990710;28;20402;-52
2023/11/16 02:38:00;;;;;;;7.75;2.17;;;8.20;99.90;;;;;;4990695;28;20046;-52
2023/11/16 02:40:28;;;;;;;8.57;2.50;;;8.20;99.90;;;;;;4991162;28;20045;-49
2023/11/16 02:42:54;;;;;;;8.25;2.22;;;8.30;99.90;;;;;;4990508;28;20444;-48
2023/11/16 02:45:23;;;;;;;6.47;2.67;;;8.30;99.90;;;;;;4990303;28;20039;-48
2023/11/16 02:47:52;;;;;;;8.02;2.40;;;8.30;99.90;;;;;;4990415;28;20027;-46
2023/11/16 02:50:19;;;;;;;7.47;2.97;;;8.40;99.90;;;;;;4990219;28;20046;-46
2023/11/16 02:52:45;;;;;;;11.00;2.35;;;8.40;99.90;;;;;;4990081;28;20513;-53
2023/11/16 02:55:11;;;;;;;3.78;1.98;;;8.50;99.90;;;;;;4990206;28;20026;-54
2023/11/16 02:57:40;;;;;;;9.73;3.20;;;8.50;99.90;;;;;;4990221;28;20046;-49
2023/11/16 03:00:11;;;;;;;14.38;2.13;;;8.60;99.90;;;;;;4988775;28;20030;-53
2023/11/16 03:02:40;;;;;;;4.30;2.58;;;8.60;99.90;;;;;;4990034;28;20091;-47
2023/11/16 03:05:06;;;;;;;3.55;1.75;;;8.60;99.90;;;;;;4990134;28;20084;-50
2023/11/16 03:07:33;;;;;;;10.15;2.10;;;8.60;99.90;;;;;;4988738;28;20454;-54
2023/11/16 03:10:01;;;;;;;4.38;1.92;;;8.60;99.90;;;;;;4990173;28;20018;-48
2023/11/16 03:12:26;;;;;;;5.95;2.58;;;8.50;99.90;;;;;;4989795;28;20019;-51
2023/11/16 03:14:53;;;;;;;6.30;2.45;;;8.60;99.90;;;;;;4989908;28;20199;-49
2023/11/16 03:17:20;;;;;;;6.50;2.92;;;8.60;99.90;;;;;;4988616;28;20050;-51
2023/11/16 03:19:46;;;;;;;9.88;2.40;;;8.60;99.90;;;;;;4989916;28;20018;-50
2023/11/16 03:22:11;;;;;;;9.70;2.35;;;8.60;99.90;;;;;;4989752;28;20030;-46
2023/11/16 03:24:37;;;;;;;11.95;2.40;;;8.50;99.90;;;;;;4989925;28;20446;-48
2023/11/16 03:27:03;;;;;;;4.05;1.90;;;8.60;99.90;;;;;;4989667;28;20037;-51
2023/11/16 03:29:30;;;;;;;10.23;2.78;;;8.60;99.90;;;;;;4989407;28;20026;-51
2023/11/16 03:31:56;;;;;;;6.22;2.40;;;8.60;99.90;;;;;;4989880;28;20080;-51
2023/11/16 03:34:22;;;;;;;3.95;1.70;;;8.60;99.90;;;;;;4989645;28;20497;-49
2023/11/16 03:36:48;;;;;;;5.95;2.55;;;8.60;99.90;;;;;;4989532;28;20151;-52
2023/11/16 03:39:17;;;;;;;14.20;2.53;;;8.50;99.90;;;;;;4989486;28;20041;-47
2023/11/16 03:41:43;;;;;;;8.85;2.03;;;8.50;99.90;;;;;;4989535;28;20501;-49
2023/11/16 03:44:08;;;;;;;7.65;2.20;;;8.50;99.90;;;;;;4989562;28;20058;-48
2023/11/16 03:46:34;;;;;;;6.43;2.38;;;8.50;99.90;;;;;;4989715;28;20106;-50
2023/11/16 03:48:59;;;;;;;10.13;2.25;;;8.40;99.90;;;;;;4989669;28;20018;-53
2023/11/16 03:51:29;;;;;;;7.18;1.83;;;8.40;99.90;;;;;;4990007;28;20022;-46
2023/11/16 03:53:56;;;;;;;9.57;2.53;;;8.40;99.90;;;;;;4989855;28;20087;-50
2023/11/16 03:56:22;;;;;;;9.32;2.47;;;8.40;99.90;;;;;;4989588;28;20037;-46
2023/11/16 03:58:48;;;;;;;8.93;2.97;;;8.40;99.90;;;;;;4989444;28;20027;-48
2023/11/16 04:01:13;;;;;;;11.77;3.90;;;8.50;99.90;;;;;;4989158;28;20034;-46
2023/11/16 04:03:39;;;;;;;8.68;2.15;;;8.40;99.90;;;;;;4989541;28;20037;-46
2023/11/16 04:06:05;;;;;;;5.47;2.75;;;8.40;99.90;;;;;;4989259;28;20038;-47
2023/11/16 04:08:30;;;;;;;2.53;2.05;;;8.40;99.90;;;;;;4989261;28;20095;-49
2023/11/16 04:10:56;;;;;;;4.40;2.00;;;8.40;99.90;;;;;;4988020;28;20026;-52
2023/11/16 04:13:22;;;;;;;6.88;2.35;;;8.40;99.90;;;;;;4989335;28;20113;-55
2023/11/16 04:15:47;;;;;;;6.30;2.13;;;8.30;99.90;;;;;;4989288;28;20510;-51
2023/11/16 04:18:13;;;;;;;6.50;2.10;;;8.30;99.90;;;;;;4989053;28;20027;-52
2023/11/16 04:20:38;;;;;;;7.05;2.08;;;8.30;99.90;;;;;;4989070;28;20030;-51
2023/11/16 04:23:05;;;;;;;5.75;2.15;;;8.40;99.90;;;;;;4988956;28;20117;-51
2023/11/16 04:25:33;;;;;;;9.65;2.10;;;8.40;99.90;;;;;;4988964;28;20033;-52
2023/11/16 04:28:04;;;;;;;8.95;1.70;;;8.40;99.90;;;;;;4988871;28;20068;-52
2023/11/16 04:30:34;;;;;;;4.10;2.28;;;8.50;99.90;;;;;;4989008;28;20023;-51
2023/11/16 04:33:00;;;;;;;4.15;1.67;;;8.50;99.90;;;;;;4988956;28;20019;-53
2023/11/16 04:35:26;;;;;;;4.45;1.70;;;8.40;99.90;;;;;;4988475;28;20095;-52
2023/11/16 04:37:55;;;;;;;2.60;1.58;;;8.40;99.90;;;;;;4988872;28;20490;-51
2023/11/16 04:40:22;;;;;;;11.15;2.58;;;8.40;99.90;;;;;;4989866;28;20121;-52
2023/11/16 04:42:48;;;;;;;4.22;1.25;;;8.40;99.90;;;;;;4992345;28;20076;-51
2023/11/16 04:45:15;;;;;;;5.38;1.83;;;8.40;99.90;;;;;;4992139;28;20034;-50
2023/11/16 04:47:44;;;;;;;8.43;2.40;;;8.30;99.90;;;;;;4992024;28;20026;-50
2023/11/16 04:50:10;;;;;;;5.18;1.55;;;8.30;99.90;;;;;;4992056;28;20045;-55
2023/11/16 04:52:36;;;;;;;5.22;1.35;;;8.30;99.90;;;;;;4991865;28;20071;-50
2023/11/16 04:55:03;;;;;;;3.85;1.20;;;8.30;99.90;;;;;;4992035;28;20489;-49
2023/11/16 04:57:29;;;;;;;7.80;1.73;;;8.30;99.90;;;;;;4992040;28;20029;-51
2023/11/16 04:59:54;;;;;;;7.10;1.30;;;8.30;99.90;;;;;;4992033;28;20397;-52
2023/11/16 05:02:23;;;;;;;11.55;1.80;;;8.30;99.90;;;;;;4991743;28;20482;-50
2023/11/16 05:04:49;;;;;;;9.43;1.88;;;8.30;99.90;;;;;;4990648;28;20050;-49
2023/11/16 05:07:14;;;;;;;4.32;1.70;;;8.30;99.90;;;;;;4991817;28;20022;-53
2023/11/16 05:09:41;;;;;;;5.13;1.30;;;8.20;99.90;;;;;;4990657;28;20050;-53
2023/11/16 05:12:07;;;;;;;3.80;1.23;;;8.20;99.90;;;;;;4991823;28;20105;-49
2023/11/16 05:14:33;;;;;;;1.38;1.25;;;8.20;99.90;;;;;;4990505;28;20494;-48
2023/11/16 05:16:59;;;;;;;4.13;1.45;;;8.20;99.90;;;;;;4991740;28;20125;-51
2023/11/16 05:19:24;;;;;;;3.60;1.98;;;8.20;99.90;;;;;;4991751;28;20033;-48
2023/11/16 05:21:51;;;;;;;6.90;1.88;;;8.20;99.90;;;;;;4991705;28;20026;-48
2023/11/16 05:24:17;;;;;;;2.85;1.60;;;8.10;99.90;;;;;;4991676;28;20030;-50
2023/11/16 05:26:44;;;;;;;9.02;2.45;;;8.10;99.90;;;;;;4991603;28;20026;-51
2023/11/16 05:29:10;;;;;;;4.10;1.50;;;8.10;99.90;;;;;;4991534;28;20413;-50
2023/11/16 05:31:35;;;;;;;2.65;1.08;;;8.20;99.90;;;;;;4991439;28;20022;-51
2023/11/16 05:34:02;;;;;;;1.73;1.40;;;8.20;99.90;;;;;;4991860;28;20041;-50
2023/11/16 05:36:27;;;;;;;4.85;1.92;;;8.20;99.90;;;;;;4988140;28;20524;-47
2023/11/16 05:38:53;;;;;;;2.90;1.63;;;8.10;99.90;;;;;;4989173;28;20034;-52
2023/11/16 05:41:20;;;;;;;2.50;1.48;;;8.10;99.90;;;;;;4992134;28;20485;-50
2023/11/16 05:43:48;;;;;;;5.47;1.73;;;8.20;99.90;;;;;;4991078;28;20053;-52
2023/11/16 05:46:13;;;;;;;8.80;2.17;;;8.10;99.90;;;;;;4990181;28;20018;-49
2023/11/16 05:48:39;;;;;;;4.80;2.35;;;8.10;99.90;;;;;;4991585;28;20501;-49
2023/11/16 05:51:05;;;;;;;4.57;2.55;;;8.10;99.90;;;;;;4989915;28;20033;-50
2023/11/16 05:53:31;;;;;;;5.30;1.55;;;8.10;99.90;;;;;;4991473;28;20030;-48
2023/11/16 05:55:57;;;;;;;3.13;1.42;;;8.20;99.90;;;;;;4990695;28;20058;-49
2023/11/16 05:58:23;;;;;;;9.75;1.70;;;8.10;99.90;;;;;;4989908;28;20493;-48
2023/11/16 06:00:48;;;;;;;5.50;1.90;;;8.00;99.90;;;;;;4990670;28;20424;-51
2023/11/16 06:03:14;;;;;;;7.97;1.85;;;8.00;99.90;;;;;;4991094;28;20110;-52
2023/11/16 06:05:41;;;;;;;4.20;2.00;;;8.00;99.90;;;;;;4991192;28;20061;-55
2023/11/16 06:08:07;;;;;;;7.32;2.00;;;8.00;99.90;;;;;;4990770;28;20023;-48
2023/11/16 06:10:33;;;;;;;5.88;2.08;;;8.00;99.90;;;;;;4991397;28;20466;-53
2023/11/16 06:12:59;;;;;;;5.85;2.28;;;7.90;99.90;;;;;;4990613;28;20453;-47
2023/11/16 06:15:25;;;;;;;3.85;2.42;;;7.90;99.90;;;;;;4990968;28;20076;-49
2023/11/16 06:17:54;;;;;;;8.57;2.15;;;7.90;99.90;;;;;;4990980;28;20105;-48
2023/11/16 06:20:20;;;;;;;8.55;2.13;;;8.00;99.90;;;;;;4990815;28;20105;-45
2023/11/16 06:22:46;;;;;;;5.55;2.33;;;7.90;99.90;;;;;;4990709;28;20058;-47
2023/11/16 06:25:12;;;;;;;7.50;2.63;;;7.90;99.90;;;;;;4991069;28;20075;-48
2023/11/16 06:27:38;;;;;;;5.93;2.88;;;7.80;99.90;;;;;;4990799;28;20026;-49
2023/11/16 06:30:07;;;;;;;9.05;2.97;;;7.80;99.90;;;;;;4990524;28;20023;-50
2023/11/16 06:32:35;;;;;;;8.57;3.25;;;7.80;99.90;;;;;;4990438;28;20025;-48
2023/11/16 06:35:01;;;;;;;12.07;3.53;;;7.80;99.90;;;;;;4990534;28;20461;-48
2023/11/16 06:37:26;;;;;;;5.43;3.13;;;7.80;99.90;;;;;;4990487;28;20050;-47
2023/11/16 06:39:52;;;;;;;8.85;3.97;;;7.80;99.90;;;;;;4990551;28;20038;-45
2023/11/16 06:42:18;;;;;;;12.77;4.05;;;7.80;99.90;;;;;;4990266;28;20156;-47
2023/11/16 06:44:44;;;;;;;8.20;4.03;;;7.80;99.90;;;;;;4989005;28;20116;-45
2023/11/16 06:47:12;;;;;;;9.55;3.97;;;7.80;99.90;;;;;;4990424;28;20023;-46
2023/11/16 06:49:37;;;;;;;10.27;5.22;;;7.80;99.90;;;;;;4990475;28;20041;-48
2023/11/16 06:52:04;;;;;;;9.35;5.10;;;7.80;99.90;;;;;;4990393;28;20482;-45
2023/11/16 06:54:32;;;;;;;9.70;4.70;;;7.80;99.90;;;;;;4990372;28;20132;-50
2023/11/16 06:56:59;;;;;;;11.18;4.93;;;7.80;99.90;;;;;;4990145;28;20033;-48
2023/11/16 06:59:24;;;;;;;7.97;4.65;;;7.80;99.90;;;;;;4990469;28;20464;-47
2023/11/16 07:01:52;;;;;;;12.38;5.45;;;7.90;99.90;;;;;;4988734;28;20036;-46
2023/11/16 07:04:18;;;;;;;9.30;4.05;;;7.90;99.90;;;;;;4989665;28;20030;-46
2023/11/16 07:06:45;;;;;;;8.77;3.70;;;7.90;99.90;;;;;;4990247;28;20054;-45
2023/11/16 07:09:13;;;;;;;9.20;5.72;;;7.90;99.90;;;;;;4990455;28;20031;-47
2023/11/16 07:11:38;;;;;;;9.93;3.80;;;8.00;99.90;;;;;;4989896;28;20018;-48
2023/11/16 07:14:04;;;;;;;10.93;5.18;;;8.00;99.90;;;;;;4990164;28;20448;-47
2023/11/16 07:16:30;;;;;;;7.95;5.25;;;8.10;99.90;;;;;;4990274;28;20523;-47
2023/11/16 07:18:58;;;;;;;8.18;5.25;;;8.20;99.90;;;;;;4989857;28;20117;-45
2023/11/16 07:21:23;;;;;;;8.48;4.63;;;8.20;99.90;;;;;;4990234;28;20172;-48
2023/11/16 07:23:49;;;;;;;13.55;4.55;;;8.30;99.90;;;;;;4990169;28;20156;-46
2023/11/16 07:26:18;;;;;;;9.52;4.13;;;8.40;99.90;;;;;;4990315;28;20068;-46
2023/11/16 07:28:44;;;;;;;9.77;4.65;;;8.50;99.90;;;;;;4990017;28;20019;-45
2023/11/16 07:31:09;;;;;;;16.55;5.53;;;8.60;99.90;;;;;;4990494;28;20155;-45
2023/11/16 07:33:35;;;;;;;9.98;4.38;;;8.70;99.90;;;;;;4990252;28;20034;-48
2023/11/16 07:36:02;;;;;;;7.45;4.07;;;8.70;99.90;;;;;;4990077;28;20022;-45
2023/11/16 07:38:28;;;;;;;19.50;4.20;;;8.80;99.90;;;;;;4989999;28;20121;-43
2023/11/16 07:40:57;;;;;;;8.05;3.85;;;8.80;99.90;;;;;;4989973;28;20539;-47
2023/11/16 07:43:25;;;;;;;9.60;3.80;;;8.80;99.90;;;;;;4988778;28;20022;-45
2023/11/16 07:45:52;;;;;;;10.13;3.70;;;8.80;99.90;;;;;;4989874;28;20034;-46
2023/11/16 07:48:19;;;;;;;8.30;3.45;;;8.70;99.90;;;;;;4989782;28;20405;-49
2023/11/16 07:50:44;;;;;;;10.23;3.70;;;8.70;99.90;;;;;;4989657;28;20485;-48
2023/11/16 07:53:10;;;;;;;9.38;3.60;;;8.70;99.90;;;;;;4989527;28;20061;-46
2023/11/16 07:55:36;;;;;;;13.50;3.70;;;8.70;99.90;;;;;;4989448;28;20390;-50
2023/11/16 07:58:03;;;;;;;7.95;3.40;;;8.80;99.90;;;;;;4989554;28;20038;-47
2023/11/16 08:00:37;;;;;;;8.40;3.60;;;8.70;99.90;;;;;;4989369;28;20030;-51
2023/11/16 08:05:48;;;;;;;9.60;3.30;;;8.70;99.90;;;;;;4989493;28;20501;-49
2023/11/16 08:08:15;;;;;;;11.93;3.85;;;8.70;99.90;;;;;;4989489;28;20355;-46
2023/11/16 08:10:45;;;;;;;5.82;3.75;;;8.70;99.90;;;;;;4988066;28;20029;-50
2023/11/16 08:13:11;;;;;;;12.57;4.07;;;8.80;99.90;;;;;;4989438;28;20401;-47
2023/11/16 08:15:40;;;;;;;7.70;4.03;;;8.80;99.90;;;;;;4988237;28;20455;-51
2023/11/16 08:18:10;;;;;;;12.15;4.45;;;8.90;99.90;;;;;;4988977;28;20026;-45
2023/11/16 08:20:36;;;;;;;7.47;3.95;;;9.00;99.90;;;;;;4989082;28;20053;-45
2023/11/16 08:23:02;;;;;;;5.47;3.42;;;9.00;99.90;;;;;;4989487;28;20113;-49
2023/11/16 08:25:28;;;;;;;15.98;4.20;;;9.10;99.90;;;;;;4989133;28;20187;-46
2023/11/16 08:27:55;;;;;;;7.00;3.45;;;9.30;99.90;;;;;;4989179;28;20030;-48
2023/11/16 08:30:25;;;;;;;13.50;3.30;;;9.30;99.90;;;;;;4989166;28;20083;-47
2023/11/16 08:32:51;;;;;;;10.10;3.60;;;9.40;99.90;;;;;;4988839;28;20116;-46
2023/11/16 08:35:18;;;;;;;6.22;4.15;;;9.40;99.90;;;;;;4989076;28;20033;-50
2023/11/16 08:37:44;;;;;;;5.45;3.40;;;9.50;99.90;;;;;;4987463;28;20034;-51
2023/11/16 08:40:18;;;;;;;8.25;4.30;;;9.50;99.90;;;;;;4988822;28;20041;-49
2023/11/16 08:42:44;;;;;;;10.40;3.75;;;9.50;99.90;;;;;;4988774;28;20105;-51
2023/11/16 08:45:20;;;;;;;10.55;3.63;;;9.50;99.90;;;;;;4988892;28;20024;-51
2023/11/16 08:47:52;;;;;;;8.15;3.47;;;9.50;99.90;;;;;;4988853;28;20033;-48
2023/11/16 08:50:19;;;;;;;7.68;3.60;;;9.60;99.90;;;;;;4988737;28;20578;-49
2023/11/16 08:52:48;;;;;;;6.72;3.45;;;9.60;99.90;;;;;;4988269;28;20050;-44
2023/11/16 08:55:15;;;;;;;8.07;3.80;;;9.60;99.90;;;;;;4988660;28;20102;-50
2023/11/16 08:57:42;;;;;;;7.72;3.35;;;9.70;99.90;;;;;;4988792;28;20034;-47
2023/11/16 09:02:57;;;;;;;6.50;3.40;;;9.60;99.90;;;;;;4989050;28;20413;-50
2023/11/16 09:05:28;;;;;;;5.90;4.28;;;9.70;99.90;;;;;;4988595;28;20369;-49
2023/11/16 09:07:54;;;;;;;15.18;4.18;;;9.70;99.90;;;;;;4988515;28;20027;-51
2023/11/16 09:10:21;;;;;;;19.83;11.80;;;9.70;99.90;;;;;;4987522;28;20462;-49
2023/11/16 09:12:55;;;;;;;16.00;4.65;;;9.70;99.90;;;;;;4986853;28;20042;-53
2023/11/16 09:15:22;;;;;;;8.75;4.05;;;9.60;99.90;;;;;;4988540;28;20072;-46
2023/11/16 09:17:51;;;;;;;14.52;4.45;;;9.50;99.90;;;;;;4986921;28;20064;-50
2023/11/16 09:20:22;;;;;;;14.68;3.97;;;9.40;99.90;;;;;;4985784;28;20240;-52
2023/11/16 09:22:49;;;;;;;8.32;3.90;;;9.40;99.90;;;;;;4977919;28;20018;-50
2023/11/16 09:25:18;;;;;;;10.48;3.50;;;9.40;99.90;;;;;;4987942;28;20066;-48
2023/11/16 09:27:51;;;;;;;7.28;3.90;;;9.30;99.90;;;;;;4991428;28;20059;-44
2023/11/16 09:30:18;;;;;;;9.85;4.07;;;9.30;99.90;;;;;;4983311;28;20042;-47
2023/11/16 09:32:45;;;;;;;12.45;4.07;;;9.30;99.90;;;;;;4972059;28;20068;-48
2023/11/16 09:35:14;;;;;;;6.05;3.45;;;9.40;99.90;;;;;;4976169;28;20022;-46
2023/11/16 09:37:45;;;;;;;13.90;4.57;;;9.40;99.90;;;;;;4991359;28;20029;-51
2023/11/16 09:40:19;;;;;;;9.15;4.07;;;9.40;99.90;;;;;;4991219;28;20374;-46
2023/11/16 09:42:48;;;;;;;7.82;3.50;;;9.40;99.90;;;;;;4991844;28;20027;-45
2023/11/16 09:45:20;;;;;;;14.93;4.95;;;9.40;99.90;;;;;;4990276;28;20033;-47
2023/11/16 09:47:53;;;;;;;7.47;3.90;;;9.50;99.90;;;;;;4990504;28;20083;-46
2023/11/16 09:50:21;;;;;;;9.65;4.50;;;9.60;99.90;;;;;;4988120;28;20038;-46
2023/11/16 09:52:51;;;;;;;11.07;4.93;;;9.60;99.90;;;;;;4990675;28;20533;-46
2023/11/16 09:55:19;;;;;;;8.70;4.60;;;9.60;99.90;;;;;;4974313;28;20198;-50
2023/11/16 09:57:46;;;;;;;11.57;4.63;;;9.60;99.90;;;;;;4971337;28;20030;-57
2023/11/16 10:00:15;;;;;;;10.27;4.50;;;9.70;99.90;;;;;;4970275;28;20034;-51
2023/11/16 10:02:52;;;;;;;14.60;5.32;;;9.60;99.90;;;;;;4973386;28;20457;-60
2023/11/16 10:05:22;;;;;;;11.70;4.63;;;9.70;99.90;;;;;;4981498;28;20035;-52
2023/11/16 10:07:52;;;;;;;9.95;4.47;;;9.60;99.90;;;;;;4989907;28;20119;-53
2023/11/16 10:10:19;;;;;;;15.52;5.15;;;9.80;99.90;;;;;;4991165;28;20105;-59
2023/11/16 10:12:47;;;;;;;11.35;5.10;;;9.80;99.90;;;;;;4980258;28;20023;-54
2023/11/16 10:15:22;;;;;;;15.55;5.60;;;9.90;99.90;;;;;;4971383;28;20494;-55
2023/11/16 10:17:48;;;;;;;;;;;9.70;99.90;;;;;;4971821;28;20043;-54
2023/11/16 10:20:16;;;;;;;;;;;9.80;99.90;;;;;;4974764;28;19906;-57
2023/11/16 10:22:44;;;;;;;19.80;8.77;;;9.70;99.90;;;;;;4990144;28;19910;-58
2023/11/16 10:25:10;;;;;;;25.77;11.93;;;9.70;99.90;;;;;;4989310;28;20049;-59
2023/11/16 10:27:36;;;;;;;18.30;9.20;;;9.70;99.90;;;;;;4989316;28;20025;-53
2023/11/16 10:30:04;;;;;;;11.73;5.53;;;9.80;99.90;;;;;;4989721;28;20034;-57
2023/11/16 10:32:30;;;;;;;17.73;6.70;;;9.80;99.90;;;;;;4973614;28;20323;-57
2023/11/16 10:35:00;;;;;;;10.43;6.22;;;9.80;99.90;;;;;;4974479;28;20026;-64
2023/11/16 10:37:28;;;;;;;13.95;6.13;;;9.80;99.90;;;;;;4970327;28;20023;-63
2023/11/16 10:39:54;;;;;;;13.23;6.40;;;9.90;99.90;;;;;;4982080;28;20057;-57
2023/11/16 10:42:21;;;;;;;14.73;6.75;;;10.00;99.90;;;;;;4990345;28;20399;-56
2023/11/16 10:44:52;;;;;;;13.15;6.28;;;9.90;99.90;;;;;;4989734;28;20018;-58
2023/11/16 10:47:19;;;;;;;17.77;6.85;;;9.90;99.90;;;;;;4990487;28;20030;-53
2023/11/16 10:49:45;;;;;;;10.65;6.80;;;9.80;99.90;;;;;;4987087;28;20034;-57
2023/11/16 10:52:15;;;;;;;8.30;5.40;;;9.70;99.90;;;;;;4989815;28;20027;-57
2023/11/16 10:54:45;;;;;;;12.85;6.47;;;9.70;99.90;;;;;;4988953;28;20113;-58
2023/11/16 10:57:15;;;;;;;10.77;5.28;;;9.70;99.90;;;;;;4989754;28;20061;-56
2023/11/16 10:59:46;;;;;;;11.65;5.70;;;9.60;99.90;;;;;;4990438;28;20042;-57
2023/11/16 11:02:16;;;;;;;14.93;6.05;;;9.70;99.90;;;;;;4990059;28;20050;-56
2023/11/16 11:04:41;;;;;;;17.05;5.88;;;9.80;99.90;;;;;;4989487;28;20517;-59
2023/11/16 11:07:13;;;;;;;13.15;5.47;;;9.80;99.90;;;;;;4989881;28;20031;-56
2023/11/16 11:09:43;;;;;;;10.25;5.15;;;9.80;99.90;;;;;;4989918;28;20022;-57
2023/11/16 11:12:12;;;;;;;13.38;4.80;;;9.80;99.90;;;;;;4989155;28;20068;-56
2023/11/16 11:14:51;;;;;;;12.10;6.05;;;9.80;99.90;;;;;;4976460;28;20027;-54
2023/11/16 11:17:20;;;;;;;18.70;4.93;;;9.80;99.90;;;;;;4973694;28;20031;-55
2023/11/16 11:20:09;;;;;;;11.18;5.07;;;9.40;99.90;;;;;;4989653;28;20036;-61
2023/11/16 11:22:36;;;;;;;10.68;4.57;;;9.80;99.90;;;;;;4989065;28;20033;-56
2023/11/16 11:25:06;;;;;;;6.63;4.50;;;9.80;99.90;;;;;;4989417;28;20227;-56
2023/11/16 11:27:31;;;;;;;10.60;4.80;;;9.80;99.90;;;;;;4982326;28;20015;-55
2023/11/16 11:30:08;;;;;;;13.80;5.38;;;9.80;99.90;;;;;;4978316;28;20026;-54
2023/11/16 11:32:41;;;;;;;15.45;5.30;;;9.90;99.90;;;;;;4983838;28;20019;-54
2023/11/16 11:35:11;;;;;;;12.63;5.43;;;9.90;99.90;;;;;;4981100;28;20041;-58
2023/11/16 11:37:38;;;;;;;13.90;5.05;;;9.90;99.90;;;;;;4988091;28;20519;-58
2023/11/16 11:40:08;;;;;;;16.58;7.28;;;9.90;99.90;;;;;;5004364;23;20493;-55
2023/11/16 11:42:38;;;;;;;13.55;4.95;;;9.90;99.90;;;;;;4999891;28;20444;-56
2023/11/16 11:45:07;;;;;;;9.48;4.43;;;10.00;99.90;;;;;;4982813;28;20029;-55
2023/11/16 11:47:38;;;;;;;9.43;4.25;;;9.90;99.90;;;;;;4989068;28;20027;-51
2023/11/16 11:50:04;;;;;;;12.57;4.50;;;10.10;99.90;;;;;;4976473;28;20118;-53
2023/11/16 11:52:30;;;;;;;10.07;4.80;;;9.90;99.90;;;;;;4987089;28;20102;-55
2023/11/16 11:54:56;;;;;;;12.98;4.28;;;9.90;99.90;;;;;;4988110;28;20050;-56
2023/11/16 11:57:23;;;;;;;9.40;4.00;;;9.80;99.90;;;;;;4989197;28;20036;-51
2023/11/16 11:59:49;;;;;;;25.33;12.25;;;9.90;99.90;;;;;;4988141;28;20550;-57
2023/11/16 12:02:17;;;;;;;23.13;12.73;;;10.00;99.90;;;;;;4985832;28;20025;-53
2023/11/16 12:04:43;;;;;;;33.83;15.02;;;10.00;99.90;;;;;;4988142;28;20022;-53
2023/11/16 12:07:10;;;;;;;10.73;5.88;;;10.10;99.90;;;;;;4989570;28;20057;-56
2023/11/16 12:09:37;;;;;;;10.77;4.38;;;10.30;99.90;;;;;;4988939;28;20035;-56
2023/11/16 12:12:06;;;;;;;10.55;5.35;;;10.20;99.90;;;;;;4989029;28;20163;-53
2023/11/16 12:14:38;;;;;;;11.55;4.32;;;10.20;99.90;;;;;;4987696;28;20486;-48
2023/11/16 12:17:04;;;;;;;9.90;4.78;;;10.10;99.90;;;;;;4987099;28;20105;-48
2023/11/16 12:19:31;;;;;;;8.10;4.47;;;10.20;99.90;;;;;;4988705;28;20036;-49
2023/11/16 12:21:57;;;;;;;8.88;4.50;;;10.10;99.90;;;;;;4986674;28;20179;-51
2023/11/16 12:24:24;;;;;;;11.90;4.47;;;10.00;99.90;;;;;;4989071;28;20067;-50
2023/11/16 12:26:51;;;;;;;10.52;4.20;;;10.10;99.90;;;;;;4989961;28;20038;-49
2023/11/16 12:29:22;;;;;;;9.20;3.70;;;10.10;99.90;;;;;;4989317;28;20105;-51
2023/11/16 12:31:49;;;;;;;6.63;4.80;;;10.00;99.90;;;;;;4989760;28;20019;-51
2023/11/16 12:34:15;;;;;;;8.48;4.38;;;10.00;99.90;;;;;;4990118;28;20050;-52
2023/11/16 12:36:44;;;;;;;18.48;5.30;;;10.00;99.90;;;;;;4990051;28;20073;-50
2023/11/16 12:39:10;;;;;;;21.52;6.15;;;10.00;99.90;;;;;;4989848;28;20038;-49
2023/11/16 12:41:39;;;;;;;11.70;5.40;;;10.00;99.90;;;;;;4990098;28;20034;-49
2023/11/16 12:44:06;;;;;;;7.70;5.22;;;10.00;99.90;;;;;;4988080;28;20447;-50
2023/11/16 12:46:31;;;;;;;14.90;5.50;;;9.90;99.90;;;;;;4988149;28;20397;-51
2023/11/16 12:48:57;;;;;;;15.77;6.70;;;9.90;99.90;;;;;;4989721;28;20039;-50
2023/11/16 12:51:24;;;;;;;9.35;5.32;;;10.00;99.90;;;;;;4994059;28;20080;-50
2023/11/16 12:53:50;;;;;;;14.02;5.65;;;9.90;99.90;;;;;;4994972;28;20046;-53
2023/11/16 12:56:17;;;;;;;18.88;5.63;;;9.90;99.90;;;;;;4994374;28;20512;-53
2023/11/16 12:58:42;;;;;;;24.92;5.38;;;9.90;99.90;;;;;;4994942;28;20034;-54